Time;durP1;ratioP1;P1;durP2;ratioP2;P2;SDS_P1;SDS_P2;PMS_P1;PMS_P2;Temp;Humidity;BMP_temperature;BMP_pressure;BME280_temperature;BME280_humidity;BME280_pressure;Samples;Min_cycle;Max_cycle;Signal;HPM_P1;HPM_P2
2023/07/28 00:01:53;;;;;;;;;;;18.50;99.90;;;;;;8411899;28;20349;-72
2023/07/28 00:05:55;;;;;;;;;;;18.50;99.90;;;;;;8359943;28;19925;-72
2023/07/28 00:09:57;;;;;;;;;;;18.60;99.90;;;;;;8369997;28;19926;-72
2023/07/28 00:13:58;;;;;;;;;;;18.60;99.90;;;;;;8384748;28;19925;-72
2023/07/28 00:18:01;;;;;;;;;;;18.60;99.90;;;;;;8378953;28;19925;-72
2023/07/28 00:22:03;;;;;;;;;;;18.60;99.90;;;;;;8370509;28;19996;-72
2023/07/28 00:26:05;;;;;;;;;;;18.60;99.90;;;;;;8366352;28;19970;-72
2023/07/28 00:30:07;;;;;;;;;;;18.60;99.90;;;;;;8385345;28;19924;-72
2023/07/28 00:34:09;;;;;;;;;;;18.60;99.90;;;;;;8398224;28;20292;-72
2023/07/28 00:38:10;;;;;;;;;;;18.60;99.90;;;;;;8393383;28;19951;-72
2023/07/28 00:42:12;;;;;;;;;;;18.60;99.90;;;;;;8392086;28;20003;-72
2023/07/28 00:46:14;;;;;;;;;;;18.60;99.90;;;;;;8392817;28;19995;-72
2023/07/28 00:50:16;;;;;;;;;;;18.60;99.90;;;;;;8374496;28;19925;-72
2023/07/28 00:54:18;;;;;;;;;;;18.60;99.90;;;;;;8370554;28;19925;-72
2023/07/28 00:58:20;;;;;;;;;;;18.60;99.90;;;;;;8395192;28;20445;-72
2023/07/28 01:02:22;;;;;;;;;;;18.60;99.90;;;;;;8388065;28;20000;-72
2023/07/28 01:06:35;;;;;;;;;;;18.70;99.90;;;;;;8362639;28;20386;-72
2023/07/28 01:10:38;;;;;;;;;;;18.70;99.90;;;;;;8366798;28;19925;-72
2023/07/28 01:14:40;;;;;;;;;;;18.70;99.90;;;;;;8360688;28;19925;-72
2023/07/28 01:18:42;;;;;;;;;;;18.70;99.90;;;;;;8353047;28;19978;-72
2023/07/28 01:22:47;;;;;;;;;;;18.70;99.90;;;;;;8355957;28;19929;-72
2023/07/28 01:26:49;;;;;;;;;;;18.70;99.90;;;;;;8373180;28;19925;-72
2023/07/28 01:30:51;;;;;;;;;;;18.70;99.90;;;;;;8391546;28;19932;-72
2023/07/28 01:34:53;;;;;;;;;;;18.70;99.90;;;;;;8394684;28;19924;-72
2023/07/28 01:38:57;;;;;;;;;;;18.70;99.90;;;;;;8372758;28;19925;-72
2023/07/28 01:42:59;;;;;;;;;;;18.70;99.90;;;;;;8384290;28;19940;-72
2023/07/28 01:47:01;;;;;;;;;;;18.70;99.90;;;;;;8398794;28;19947;-72
2023/07/28 01:51:02;;;;;;;;;;;18.70;99.90;;;;;;8377945;28;19932;-72
2023/07/28 01:55:06;;;;;;;;;;;18.70;99.90;;;;;;8368139;28;20382;-72
2023/07/28 01:59:08;;;;;;;;;;;18.60;99.90;;;;;;8391008;28;19950;-72
2023/07/28 02:03:09;;;;;;;;;;;18.60;99.90;;;;;;8398447;28;19929;-72
2023/07/28 02:07:11;;;;;;;;;;;18.60;99.90;;;;;;8368442;28;20076;-72
2023/07/28 02:11:13;;;;;;;;;;;18.60;99.90;;;;;;8362245;28;20263;-72
2023/07/28 02:15:14;;;;;;;;;;;18.60;99.90;;;;;;8379357;28;19967;-72
2023/07/28 02:19:16;;;;;;;;;;;18.60;99.90;;;;;;8379423;28;20271;-72
2023/07/28 02:23:17;;;;;;;;;;;18.60;99.90;;;;;;8397592;28;19979;-72
2023/07/28 02:27:19;;;;;;;;;;;18.60;99.90;;;;;;8366946;28;20419;-72
2023/07/28 02:31:21;;;;;;;;;;;18.60;99.90;;;;;;8369310;28;20295;-72
2023/07/28 02:35:22;;;;;;;;;;;18.70;99.90;;;;;;8369837;28;19932;-72
2023/07/28 02:39:24;;;;;;;;;;;18.70;99.90;;;;;;8375804;28;19924;-72
2023/07/28 02:43:26;;;;;;;;;;;18.70;99.90;;;;;;8381086;28;19970;-72
2023/07/28 02:47:28;;;;;;;;;;;18.70;99.90;;;;;;8378683;28;19925;-72
2023/07/28 02:51:30;;;;;;;;;;;18.70;99.90;;;;;;8405088;28;19928;-72
2023/07/28 02:55:31;;;;;;;;;;;18.70;99.90;;;;;;8391291;28;20406;-72
2023/07/28 02:59:33;;;;;;;;;;;18.70;99.90;;;;;;8372930;28;20299;-72
2023/07/28 03:03:35;;;;;;;;;;;18.70;99.90;;;;;;8357284;28;19974;-72
2023/07/28 03:07:37;;;;;;;;;;;18.70;99.90;;;;;;8372915;28;19925;-72
2023/07/28 03:11:38;;;;;;;;;;;18.70;99.90;;;;;;8383538;28;19925;-72
2023/07/28 03:15:40;;;;;;;;;;;18.70;99.90;;;;;;8372376;28;19951;-72
2023/07/28 03:19:41;;;;;;;;;;;18.70;99.90;;;;;;8357700;28;20287;-72
2023/07/28 03:23:43;;;;;;;;;;;18.70;99.90;;;;;;8363597;28;20030;-72
2023/07/28 03:27:45;;;;;;;;;;;18.70;99.90;;;;;;8368745;28;19924;-72
2023/07/28 03:31:46;;;;;;;;;;;18.70;99.90;;;;;;8383042;28;20391;-72
2023/07/28 03:35:48;;;;;;;;;;;18.70;99.90;;;;;;8390775;28;20011;-72
2023/07/28 03:39:49;;;;;;;;;;;18.70;99.90;;;;;;8391405;28;19928;-72
2023/07/28 03:43:51;;;;;;;;;;;18.70;99.90;;;;;;8361732;28;19925;-72
2023/07/28 03:47:53;;;;;;;;;;;18.70;99.90;;;;;;8372521;28;19925;-72
2023/07/28 03:51:54;;;;;;;;;;;18.70;99.90;;;;;;8380248;28;19933;-72
2023/07/28 03:55:58;;;;;;;;;;;18.70;99.90;;;;;;8381157;28;20377;-72
2023/07/28 03:59:59;;;;;;;;;;;18.70;99.90;;;;;;8406589;28;20422;-72
2023/07/28 04:04:03;;;;;;;;;;;18.70;99.90;;;;;;8375003;28;19929;-72
2023/07/28 04:08:06;;;;;;;;;;;18.70;99.90;;;;;;8394149;28;19936;-72
2023/07/28 04:12:07;;;;;;;;;;;18.70;99.90;;;;;;8392591;28;19924;-72
2023/07/28 04:16:09;;;;;;;;;;;18.70;99.90;;;;;;8386972;28;19931;-72
2023/07/28 04:20:11;;;;;;;;;;;18.70;99.90;;;;;;8386175;28;20446;-72
2023/07/28 04:24:12;;;;;;;;;;;18.70;99.90;;;;;;8369679;28;19925;-72
2023/07/28 04:28:14;;;;;;;;;;;18.80;99.90;;;;;;8387476;28;19928;-72
2023/07/28 04:32:16;;;;;;;;;;;18.70;99.90;;;;;;8364078;28;19925;-72
2023/07/28 04:36:18;;;;;;;;;;;18.80;99.90;;;;;;8392469;28;19925;-72
2023/07/28 04:40:19;;;;;;;;;;;18.70;99.90;;;;;;8376427;28;19928;-72
2023/07/28 04:44:21;;;;;;;;;;;18.70;99.90;;;;;;8386481;28;19925;-72
2023/07/28 04:48:23;;;;;;;;;;;18.80;99.90;;;;;;8387525;28;19924;-72
2023/07/28 04:52:24;;;;;;;;;;;18.70;99.90;;;;;;8390920;28;19928;-72
2023/07/28 04:56:26;;;;;;;;;;;18.80;99.90;;;;;;8410602;28;19932;-72
2023/07/28 05:00:28;;;;;;;;;;;18.80;99.90;;;;;;8370669;28;19925;-72
2023/07/28 05:04:30;;;;;;;;;;;18.80;99.90;;;;;;8386786;28;19937;-72
2023/07/28 05:08:31;;;;;;;;;;;18.80;99.90;;;;;;8375703;28;19963;-73
2023/07/28 05:12:33;;;;;;;;;;;18.80;99.90;;;;;;8373186;28;19924;-72
2023/07/28 05:16:35;;;;;;;;;;;18.80;99.90;;;;;;8365755;28;19975;-72
2023/07/28 05:20:36;;;;;;;;;;;18.80;99.90;;;;;;8374089;28;19924;-72
2023/07/28 05:24:38;;;;;;;;;;;18.80;99.90;;;;;;8370866;28;19928;-72
2023/07/28 05:28:39;;;;;;;;;;;18.80;99.90;;;;;;8378259;28;19936;-72
2023/07/28 05:32:41;;;;;;;;;;;18.80;99.90;;;;;;8387984;28;19951;-72
2023/07/28 05:36:44;;;;;;;;;;;18.80;99.90;;;;;;8388735;28;20378;-72
2023/07/28 05:40:45;;;;;;;;;;;18.80;99.90;;;;;;8390057;28;20037;-72
2023/07/28 05:44:47;;;;;;;;;;;18.90;99.90;;;;;;8376443;28;20284;-72
2023/07/28 05:48:49;;;;;;;;;;;18.90;99.90;;;;;;8369181;28;19933;-72
2023/07/28 05:52:51;;;;;;;;;;;18.90;99.90;;;;;;8375524;28;19935;-72
2023/07/28 05:56:52;;;;;;;;;;;18.90;99.90;;;;;;8380929;28;19928;-72
2023/07/28 06:00:54;;;;;;;;;;;18.90;99.90;;;;;;8383208;28;20303;-72
2023/07/28 06:04:56;;;;;;;;;;;18.90;99.90;;;;;;8371984;28;19964;-72
2023/07/28 06:08:57;;;;;;;;;;;18.90;99.90;;;;;;8364310;28;20360;-72
2023/07/28 06:12:59;;;;;;;;;;;18.90;99.90;;;;;;8379767;28;19925;-72
2023/07/28 06:17:01;;;;;;;;;;;19.00;99.90;;;;;;8386213;28;19928;-72
2023/07/28 06:21:02;;;;;;;;;;;18.90;99.90;;;;;;8407385;28;19924;-72
2023/07/28 06:25:04;;;;;;;;;;;19.00;99.90;;;;;;8358890;28;19924;-72
2023/07/28 06:29:06;;;;;;;;;;;19.00;99.90;;;;;;8372863;28;20323;-72
2023/07/28 06:33:08;;;;;;;;;;;19.00;99.90;;;;;;8380638;28;19925;-72
2023/07/28 06:37:10;;;;;;;;;;;19.00;99.90;;;;;;8370066;28;19932;-72
2023/07/28 06:41:11;;;;;;;;;;;19.00;99.90;;;;;;8398452;28;19928;-72
2023/07/28 06:45:14;;;;;;;;;;;19.00;99.90;;;;;;8377943;28;19970;-72
2023/07/28 06:49:16;;;;;;;;;;;19.00;99.90;;;;;;8389182;28;20424;-72
2023/07/28 06:53:17;;;;;;;;;;;19.00;99.90;;;;;;8393633;28;19981;-72
2023/07/28 06:57:19;;;;;;;;;;;19.00;99.90;;;;;;8363299;28;19932;-72
2023/07/28 07:01:22;;;;;;;;;;;19.10;99.90;;;;;;8372191;28;20296;-72
2023/07/28 07:05:24;;;;;;;;;;;19.10;99.90;;;;;;8377153;28;19932;-73
2023/07/28 07:09:26;;;;;;;;;;;19.10;99.90;;;;;;8388087;28;19925;-72
2023/07/28 07:13:27;;;;;;;;;;;19.10;99.90;;;;;;8368231;28;19925;-72
2023/07/28 07:17:29;;;;;;;;;;;19.10;99.90;;;;;;8374998;28;19924;-72
2023/07/28 07:21:31;;;;;;;;;;;19.20;99.90;;;;;;8375998;28;20657;-72
2023/07/28 07:25:32;;;;;;;;;;;19.10;99.90;;;;;;8362895;28;19924;-72
2023/07/28 07:29:34;;;;;;;;;;;19.20;99.90;;;;;;8391968;28;19959;-72
2023/07/28 07:33:36;;;;;;;;;;;19.20;99.90;;;;;;8396207;28;19932;-72
2023/07/28 07:37:38;;;;;;;;;;;19.20;99.90;;;;;;8386469;28;19932;-72
2023/07/28 07:41:40;;;;;;;;;;;19.20;99.90;;;;;;8388643;28;19924;-72
2023/07/28 07:45:42;;;;;;;;;;;19.30;99.90;;;;;;8374977;28;19978;-72
2023/07/28 07:49:43;;;;;;;;;;;19.30;99.90;;;;;;8383453;28;20245;-72
2023/07/28 07:53:45;;;;;;;;;;;19.30;99.90;;;;;;8388065;28;19932;-72
2023/07/28 07:57:47;;;;;;;;;;;19.40;99.90;;;;;;8389725;28;19924;-73
2023/07/28 08:01:48;;;;;;;;;;;19.40;99.90;;;;;;8393816;28;19925;-72
2023/07/28 08:05:51;;;;;;;;;;;19.40;99.90;;;;;;8407389;28;19928;-72
2023/07/28 08:09:52;;;;;;;;;;;19.50;99.90;;;;;;8335220;28;19925;-72
2023/07/28 08:13:55;;;;;;;;;;;19.50;99.90;;;;;;8349656;28;20438;-72
2023/07/28 08:17:56;;;;;;;;;;;19.60;99.90;;;;;;8328890;28;20281;-72
2023/07/28 08:21:58;;;;;;;;;;;19.70;99.90;;;;;;8338057;28;20019;-72
2023/07/28 08:36:07;;;;;;;;;;;20.00;99.90;;;;;;8332846;28;19971;-72
2023/07/28 08:40:10;;;;;;;;;;;20.00;99.90;;;;;;8343496;28;19925;-72
2023/07/28 08:44:12;;;;;;;;;;;20.10;99.90;;;;;;8352696;28;19974;-72
2023/07/28 08:48:14;;;;;;;;;;;20.10;99.90;;;;;;8341364;28;19982;-72
2023/07/28 08:52:16;;;;;;;;;;;20.10;99.90;;;;;;8334449;28;20376;-72
2023/07/28 08:56:18;;;;;;;;;;;20.10;99.90;;;;;;8343929;28;19951;-72
2023/07/28 09:00:20;;;;;;;;;;;20.10;99.90;;;;;;8331083;28;20269;-72
2023/07/28 09:04:22;;;;;;;;;;;20.20;99.90;;;;;;8336576;28;19975;-72
2023/07/28 09:08:24;;;;;;;;;;;20.30;99.90;;;;;;8331297;28;19929;-72
2023/07/28 09:12:25;;;;;;;;;;;20.50;99.90;;;;;;8337783;28;19925;-72
2023/07/28 09:16:29;;;;;;;;;;;20.60;99.90;;;;;;8335484;28;20012;-72
2023/07/28 09:20:35;;;;;;;;;;;20.80;99.90;;;;;;8345978;28;19925;-72
2023/07/28 09:24:37;;;;;;;;;;;20.80;99.90;;;;;;8352378;28;19956;-72
2023/07/28 09:28:39;;;;;;;;;;;20.90;99.90;;;;;;8337918;28;20236;-72
2023/07/28 09:32:46;;;;;;;;;;;21.00;99.90;;;;;;8332134;28;19938;-72
2023/07/28 09:36:48;;;;;;;;;;;21.10;99.90;;;;;;8353079;28;19977;-72
2023/07/28 09:40:52;;;;;;;;;;;21.20;99.90;;;;;;8332164;28;19925;-73
2023/07/28 09:44:53;;;;;;;;;;;21.20;99.90;;;;;;8335621;28;19925;-72
2023/07/28 09:48:56;;;;;;;;;;;21.10;99.90;;;;;;8342836;28;19929;-72
2023/07/28 09:53:00;;;;;;;;;;;21.10;99.90;;;;;;8352569;28;19932;-72
2023/07/28 09:57:04;;;;;;;;;;;21.10;99.90;;;;;;8348003;28;20548;-73
2023/07/28 10:01:06;;;;;;;;;;;21.20;99.90;;;;;;8329290;28;19932;-72
2023/07/28 10:05:08;;;;;;;;;;;21.30;99.90;;;;;;8334163;28;19933;-72
2023/07/28 10:09:11;;;;;;;;;;;21.40;99.90;;;;;;8345349;28;19929;-72
2023/07/28 10:13:22;;;;;;;;;;;21.50;99.90;;;;;;8341893;28;19987;-72
2023/07/28 10:17:49;;;;;;;;;;;21.60;99.90;;;;;;8336577;28;19982;-72
2023/07/28 10:21:58;;;;;;;;;;;21.60;99.90;;;;;;8315889;28;19933;-72
2023/07/28 10:26:01;;;;;;;;;;;21.50;99.90;;;;;;8303220;28;19926;-72
2023/07/28 10:30:07;;;;;;;;;;;21.60;99.90;;;;;;8294576;28;19929;-72
2023/07/28 10:34:09;;;;;;;;;;;21.70;99.90;;;;;;8298718;28;19980;-72
2023/07/28 10:38:33;;;;;;;;;;;21.60;99.90;;;;;;8296200;28;19929;-72
2023/07/28 10:42:35;;;;;;;;;;;21.60;99.90;;;;;;8301583;28;20412;-72
2023/07/28 10:46:37;;;;;;;;;;;21.60;99.90;;;;;;8296028;28;20292;-72
2023/07/28 10:50:39;;;;;;;;;;;21.50;99.90;;;;;;8297808;28;19968;-72
2023/07/28 10:54:42;;;;;;;;;;;21.60;99.90;;;;;;8311550;28;19991;-71
2023/07/28 10:58:43;;;;;;;;;;;21.60;99.90;;;;;;8298305;28;19937;-72
2023/07/28 11:02:46;;;;;;;;;;;21.70;99.90;;;;;;8311697;28;19925;-71
2023/07/28 11:06:48;;;;;;;;;;;21.80;99.90;;;;;;8300922;28;19933;-72
2023/07/28 11:10:50;;;;;;;;;;;21.80;99.90;;;;;;8298289;28;19937;-71
2023/07/28 11:14:52;;;;;;;;;;;21.80;99.90;;;;;;8297285;28;20309;-72
2023/07/28 11:18:55;;;;;;;;;;;21.90;99.90;;;;;;8311262;28;19925;-72
2023/07/28 11:23:00;;;;;;;;;;;22.00;99.90;;;;;;8334676;28;19979;-71
2023/07/28 11:27:02;;;;;;;;;;;22.10;99.90;;;;;;8347057;28;19983;-72
2023/07/28 11:31:04;;;;;;;;;;;22.10;99.90;;;;;;8342174;28;19932;-72
2023/07/28 11:35:06;;;;;;;;;;;22.10;99.90;;;;;;8340717;28;19929;-72
2023/07/28 11:39:08;;;;;;;;;;;22.10;99.90;;;;;;8331552;28;19963;-72
2023/07/28 11:43:10;;;;;;;;;;;22.00;99.90;;;;;;8335028;28;20002;-72
2023/07/28 11:47:16;;;;;;;;;;;22.10;99.90;;;;;;8329480;28;19928;-72
2023/07/28 11:51:19;;;;;;;;;;;22.10;99.90;;;;;;8335708;28;19925;-72
2023/07/28 11:55:21;;;;;;;;;;;22.20;99.90;;;;;;8325374;28;19925;-72
2023/07/28 11:59:23;;;;;;;;;;;22.20;99.90;;;;;;8344701;28;20006;-72
2023/07/28 12:13:31;;;;;;;;;;;22.40;99.90;;;;;;8332935;28;19971;-72
2023/07/28 12:17:33;;;;;;;;;;;22.40;99.90;;;;;;8351834;28;20044;-72
2023/07/28 12:21:37;;;;;;;;;;;22.50;99.90;;;;;;8337874;28;19952;-71
2023/07/28 12:25:39;;;;;;;;;;;22.50;99.90;;;;;;8327437;28;19925;-72
2023/07/28 12:29:41;;;;;;;;;;;22.50;99.90;;;;;;8341092;28;19975;-72
2023/07/28 12:33:51;;;;;;;;;;;22.50;99.90;;;;;;8339665;28;19929;-72
2023/07/28 12:58:17;;;;;;;;;;;23.00;99.90;;;;;;8333098;28;19924;-72
2023/07/28 13:02:22;;;;;;;;;;;23.20;99.90;;;;;;8333562;28;20147;-72
2023/07/28 13:16:31;;;;;;;;;;;23.10;99.90;;;;;;8325466;28;20442;-71
2023/07/28 13:20:33;;;;;;;;;;;23.10;99.90;;;;;;8327095;28;20024;-72
2023/07/28 13:24:34;;;;;;;;;;;23.20;99.90;;;;;;8336538;28;19940;-72
2023/07/28 13:28:36;;;;;;;;;;;23.20;99.90;;;;;;8349877;28;19925;-71
2023/07/28 13:32:38;;;;;;;;;;;23.10;99.90;;;;;;8333877;28;19936;-72
2023/07/28 13:36:40;;;;;;;;;;;23.20;99.90;;;;;;8340223;28;19925;-72
2023/07/28 13:40:41;;;;;;;;;;;23.20;99.90;;;;;;8331277;28;20388;-71
2023/07/28 13:44:43;;;;;;;;;;;23.30;99.90;;;;;;8344942;28;20384;-72
2023/07/28 13:48:58;;;;;;;;;;;23.30;99.90;;;;;;8328632;28;19924;-72
2023/07/28 13:53:08;;;;;;;;;;;23.30;99.90;;;;;;8332462;28;19971;-72
2023/07/28 13:57:14;;;;;;;;;;;23.30;99.90;;;;;;8347038;28;20458;-72
2023/07/28 14:01:15;;;;;;;;;;;23.30;99.90;;;;;;8327997;28;19925;-71
2023/07/28 14:05:18;;;;;;;;;;;23.40;99.90;;;;;;8333785;28;19932;-71
2023/07/28 14:09:20;;;;;;;;;;;23.50;99.90;;;;;;8333746;28;20399;-72
2023/07/28 14:13:22;;;;;;;;;;;23.50;99.90;;;;;;8349091;28;20343;-72
2023/07/28 14:17:24;;;;;;;;;;;23.50;99.90;;;;;;8330273;28;19925;-72
2023/07/28 14:21:26;;;;;;;;;;;23.30;99.90;;;;;;8332747;28;19963;-72
2023/07/28 14:25:27;;;;;;;;;;;23.20;99.90;;;;;;8333332;28;20388;-72
2023/07/28 14:29:29;;;;;;;;;;;23.10;99.90;;;;;;8333932;28;19925;-71
2023/07/28 14:33:31;;;;;;;;;;;23.10;99.90;;;;;;8352605;28;19924;-72
2023/07/28 14:37:32;;;;;;;;;;;23.00;99.90;;;;;;8332622;28;19940;-72
2023/07/28 14:41:35;;;;;;;;;;;22.90;99.90;;;;;;8337787;28;19925;-71
2023/07/28 14:45:36;;;;;;;;;;;22.80;99.90;;;;;;8333797;28;19925;-72
2023/07/28 14:49:38;;;;;;;;;;;22.70;99.90;;;;;;8322895;28;20027;-72
2023/07/28 14:53:40;;;;;;;;;;;22.70;99.90;;;;;;8331522;28;19951;-72
2023/07/28 14:57:41;;;;;;;;;;;22.70;99.90;;;;;;8332652;28;19928;-72
2023/07/28 15:01:43;;;;;;;;;;;22.80;99.90;;;;;;8328714;28;20392;-72
2023/07/28 15:05:45;;;;;;;;;;;22.80;99.90;;;;;;8348138;28;20336;-71
2023/07/28 15:09:47;;;;;;;;;;;22.80;99.90;;;;;;8329381;28;20020;-72
2023/07/28 15:13:48;;;;;;;;;;;22.80;99.90;;;;;;8328467;28;19933;-72
2023/07/28 15:23:06;;;;;;;;;;;22.70;99.90;;;;;;8328042;28;19931;-72
2023/07/28 15:37:17;;;;;;;;;;;22.60;99.90;;;;;;8332256;28;19928;-72
2023/07/28 15:41:19;;;;;;;;;;;22.50;99.90;;;;;;8334778;28;19925;-72
2023/07/28 15:45:20;;;;;;;;;;;22.50;99.90;;;;;;8333755;28;19929;-72
2023/07/28 15:49:22;;;;;;;;;;;22.40;99.90;;;;;;8333728;28;19925;-72
2023/07/28 15:53:24;;;;;;;;;;;22.30;99.90;;;;;;8356620;28;19928;-72
2023/07/28 15:57:25;;;;;;;;;;;22.20;99.90;;;;;;8338394;28;19932;-71
2023/07/28 16:01:27;;;;;;;;;;;22.20;99.90;;;;;;8355639;28;19955;-72
2023/07/28 16:05:29;;;;;;;;;;;22.30;99.90;;;;;;8335948;28;19936;-72
2023/07/28 16:09:30;;;;;;;;;;;22.30;99.90;;;;;;8336397;28;19925;-72
2023/07/28 16:13:32;;;;;;;;;;;22.30;99.90;;;;;;8329412;28;20401;-72
2023/07/28 16:17:34;;;;;;;;;;;22.30;99.90;;;;;;8351671;28;19979;-71
2023/07/28 16:21:36;;;;;;;;;;;22.30;99.90;;;;;;8341762;28;19999;-72
2023/07/28 16:25:38;;;;;;;;;;;22.10;99.90;;;;;;8331467;28;19929;-71
2023/07/28 16:29:40;;;;;;;;;;;21.90;99.90;;;;;;8335767;28;19926;-72
2023/07/28 16:48:52;;;;;;;;;;;21.40;99.90;;;;;;8336245;28;20008;-72
2023/07/28 16:52:54;;;;;;;;;;;21.30;99.90;;;;;;8331027;28;19933;-72
2023/07/28 16:56:56;;;;;;;;;;;21.30;99.90;;;;;;8330861;28;19979;-72
2023/07/28 17:00:58;;;;;;;;;;;21.40;99.90;;;;;;8352539;28;19925;-72
2023/07/28 17:05:00;;;;;;;;;;;21.40;99.90;;;;;;8334779;28;19925;-72
2023/07/28 17:09:01;;;;;;;;;;;21.40;99.90;;;;;;8331271;28;20297;-72
2023/07/28 17:13:03;;;;;;;;;;;21.50;99.90;;;;;;8334234;28;19996;-72
2023/07/28 17:17:05;;;;;;;;;;;21.50;99.90;;;;;;8331345;28;19987;-72
2023/07/28 17:21:07;;;;;;;;;;;21.60;99.90;;;;;;8335772;28;19929;-72
2023/07/28 17:25:08;;;;;;;;;;;21.60;99.90;;;;;;8332284;28;19925;-72
2023/07/28 17:29:10;;;;;;;;;;;21.60;99.90;;;;;;8352685;28;19933;-72
2023/07/28 17:33:27;;;;;;;;;;;21.70;99.90;;;;;;8336761;28;20300;-71
2023/07/28 17:37:29;;;;;;;;;;;21.70;99.90;;;;;;8348428;28;20369;-71
2023/07/28 17:41:31;;;;;;;;;;;21.70;99.90;;;;;;8336987;28;20274;-71
2023/07/28 17:45:34;;;;;;;;;;;21.70;99.90;;;;;;8332769;28;19928;-71
2023/07/28 18:04:38;;;;;;;;;;;21.70;99.90;;;;;;8336321;28;19966;-72
2023/07/28 18:08:40;;;;;;;;;;;21.80;99.90;;;;;;8347945;28;19976;-72
2023/07/28 18:12:42;;;;;;;;;;;21.80;99.90;;;;;;8335858;28;19929;-72
2023/07/28 18:16:43;;;;;;;;;;;21.80;99.90;;;;;;8332553;28;19925;-72
2023/07/28 18:20:45;;;;;;;;;;;21.80;99.90;;;;;;8333948;28;20474;-72
2023/07/28 18:34:54;;;;;;;;;;;21.90;99.90;;;;;;8334676;28;19928;-71
2023/07/28 18:38:56;;;;;;;;;;;21.80;99.90;;;;;;8325822;28;20399;-71
2023/07/28 18:42:57;;;;;;;;;;;21.80;99.90;;;;;;8333292;28;19929;-71
2023/07/28 18:46:59;;;;;;;;;;;21.80;99.90;;;;;;8332154;28;20319;-72
2023/07/28 18:51:02;;;;;;;;;;;21.80;99.90;;;;;;8327897;28;19925;-71
2023/07/28 18:55:04;;;;;;;;;;;21.80;99.90;;;;;;8334203;28;19983;-72
2023/07/28 18:59:06;;;;;;;;;;;21.80;99.90;;;;;;8336295;28;20354;-72
2023/07/28 19:03:07;;;;;;;;;;;21.70;99.90;;;;;;8335174;28;20388;-71
2023/07/28 19:07:09;;;;;;;;;;;21.70;99.90;;;;;;8331121;28;19929;-72
2023/07/28 19:11:11;;;;;;;;;;;21.60;99.90;;;;;;8352888;28;19929;-72
2023/07/28 19:15:12;;;;;;;;;;;21.60;99.90;;;;;;8335197;28;19925;-71
2023/07/28 19:40:06;;;;;;;;;;;21.30;99.90;;;;;;8340020;28;20003;-72
2023/07/28 19:44:08;;;;;;;;;;;21.20;99.90;;;;;;8339623;28;19929;-71
2023/07/28 19:48:10;;;;;;;;;;;21.10;99.90;;;;;;8335348;28;20371;-72
2023/07/28 19:52:12;;;;;;;;;;;21.10;99.90;;;;;;8358842;28;19924;-72
2023/07/28 19:56:15;;;;;;;;;;;21.10;99.90;;;;;;8335487;28;19925;-72
2023/07/28 20:00:17;;;;;;;;;;;21.10;99.90;;;;;;8344803;28;20356;-72
2023/07/28 20:04:19;;;;;;;;;;;21.00;99.90;;;;;;8337382;28;19929;-72
2023/07/28 20:08:20;;;;;;;;;;;21.00;99.90;;;;;;8338703;28;19932;-72
2023/07/28 20:12:22;;;;;;;;;;;21.00;99.90;;;;;;8340204;28;19971;-72
2023/07/28 20:16:24;;;;;;;;;;;21.00;99.90;;;;;;8336580;28;19963;-72
2023/07/28 20:20:26;;;;;;;;;;;20.90;99.90;;;;;;8339425;28;24264;-71
2023/07/28 20:24:28;;;;;;;;;;;20.90;99.90;;;;;;8333034;28;19929;-72
2023/07/28 20:28:29;;;;;;;;;;;20.90;99.90;;;;;;8344169;28;19964;-72
2023/07/28 20:32:31;;;;;;;;;;;20.80;99.90;;;;;;8336108;28;20371;-72
2023/07/28 20:36:34;;;;;;;;;;;20.70;99.90;;;;;;8335507;28;19929;-72
2023/07/28 20:40:36;;;;;;;;;;;20.70;99.90;;;;;;8329659;28;19933;-71
2023/07/28 20:44:37;;;;;;;;;;;20.70;99.90;;;;;;8337221;28;19925;-71
2023/07/28 20:48:39;;;;;;;;;;;20.60;99.90;;;;;;8336834;28;19925;-72
2023/07/28 20:52:41;;;;;;;;;;;20.60;99.90;;;;;;8340768;28;19929;-72
2023/07/28 20:56:42;;;;;;;;;;;20.50;99.90;;;;;;8340840;28;19975;-72
2023/07/28 21:00:44;;;;;;;;;;;20.40;99.90;;;;;;8346696;28;19950;-72
2023/07/28 21:04:46;;;;;;;;;;;20.40;99.90;;;;;;8365793;28;19933;-72
2023/07/28 21:08:48;;;;;;;;;;;20.40;99.90;;;;;;8371767;28;19924;-71
2023/07/28 21:12:49;;;;;;;;;;;20.40;99.90;;;;;;8394920;28;19924;-72
2023/07/28 21:16:51;;;;;;;;;;;20.40;99.90;;;;;;8365760;28;19924;-72
2023/07/28 21:20:53;;;;;;;;;;;20.40;99.90;;;;;;8375881;28;20363;-72
2023/07/28 21:24:55;;;;;;;;;;;20.30;99.90;;;;;;8365368;28;19928;-71
2023/07/28 21:34:00;;;;;;;;;;;20.30;99.90;;;;;;8380357;28;19923;-71
2023/07/28 21:38:01;;;;;;;;;;;20.30;99.90;;;;;;8386222;28;19924;-72
2023/07/28 21:42:09;;;;;;;;;;;20.20;99.90;;;;;;8404434;28;19933;-71
2023/07/28 21:46:11;;;;;;;;;;;20.20;99.90;;;;;;8389361;28;20381;-71
2023/07/28 21:50:12;;;;;;;;;;;20.20;99.90;;;;;;8394542;28;19928;-71
2023/07/28 21:54:14;;;;;;;;;;;20.20;99.90;;;;;;8376911;28;19932;-72
2023/07/28 21:58:16;;;;;;;;;;;20.20;99.90;;;;;;8393047;28;20355;-71
2023/07/28 22:02:17;;;;;;;;;;;20.10;99.90;;;;;;8372690;28;19932;-72
2023/07/28 22:06:26;;;;;;;;;;;20.10;99.90;;;;;;8414388;28;19912;-71
2023/07/28 22:10:28;;;;;;;;;;;20.10;99.90;;;;;;8420232;28;19924;-71
2023/07/28 22:14:30;;;;;;;;;;;20.10;99.90;;;;;;8416133;28;19932;-71
2023/07/28 22:18:32;;;;;;;;;;;20.00;99.90;;;;;;8409979;28;20280;-71
2023/07/28 22:22:33;;;;;;;;;;;20.00;99.90;;;;;;8413599;28;19929;-71
2023/07/28 22:26:35;;;;;;;;;;;20.00;99.90;;;;;;8407388;28;20410;-71
2023/07/28 22:30:38;;;;;;;;;;;19.90;99.90;;;;;;8438502;28;20295;-71
2023/07/28 22:34:39;;;;;;;;;;;19.80;99.90;;;;;;8420287;28;19928;-71
2023/07/28 22:38:41;;;;;;;;;;;19.80;99.90;;;;;;8404245;28;19929;-71
2023/07/28 22:42:43;;;;;;;;;;;19.80;99.90;;;;;;8414501;28;20011;-71
2023/07/28 22:46:44;;;;;;;;;;;19.70;99.90;;;;;;8409586;28;19924;-71
2023/07/28 22:50:46;;;;;;;;;;;19.70;99.90;;;;;;8413227;28;19931;-71
2023/07/28 22:54:48;;;;;;;;;;;19.70;99.90;;;;;;8418319;28;19932;-71
2023/07/28 22:58:52;;;;;;;;;;;19.60;99.90;;;;;;8414702;28;20093;-71
2023/07/28 23:02:54;;;;;;;;;;;19.50;99.90;;;;;;8417739;28;19924;-71
2023/07/28 23:06:56;;;;;;;;;;;19.50;99.90;;;;;;8428925;28;19931;-71
2023/07/28 23:10:57;;;;;;;;;;;19.40;99.90;;;;;;8437543;28;19932;-71
2023/07/28 23:14:59;;;;;;;;;;;19.30;99.90;;;;;;8443012;28;19924;-71
2023/07/28 23:19:01;;;;;;;;;;;19.30;99.90;;;;;;8432327;28;19927;-71
2023/07/28 23:23:03;;;;;;;;;;;19.30;99.90;;;;;;8408907;28;19928;-71
2023/07/28 23:27:05;;;;;;;;;;;19.20;99.90;;;;;;8414015;28;19924;-71
2023/07/28 23:31:10;;;;;;;;;;;19.20;99.90;;;;;;8422786;28;19925;-71
2023/07/28 23:35:12;;;;;;;;;;;19.20;99.90;;;;;;8401077;28;19924;-71
2023/07/28 23:39:14;;;;;;;;;;;19.20;99.90;;;;;;8411035;28;19928;-71
2023/07/28 23:53:23;;;;;;;;;;;19.20;99.90;;;;;;8418398;28;20432;-71
2023/07/28 23:57:25;;;;;;;;;;;19.20;99.90;;;;;;8398085;28;19993;-71
